Gazpromneft East — UBOF4 — position and weather

sailwx.info

Track history (hours):
 
Tides and Currents Weather Stations Pressure Air Temp Water Temp Dewpoint Dewpoint Depression Visibility Wind Speed Wind Dir Waves Ship Positions

Gazpromneft East

Last reported at 2016-Jul-24 10:32 UTC. Time now 2016-Jul-24 10:43 UTC.
Position N 60°01' E 029°34'.

Length 79 m; draft 5.3 m.

Type: Tanker. MMSI: 273335320.

Date/timePositionNaut miles runAvg speedWind from/ knotsBaromVisibWave heightAir tempDewpointWater temp
2016-Jul-24 10:32N 60°01' E 029°34'1010.2
2016-Jul-24 09:33N 59°57' E 029°53'9 9.5
2016-Jul-24 08:33N 59°53' E 030°10'2 1.7
2016-Jul-24 07:33N 59°53' E 030°14'0 0.0
2016-Jul-24 06:33N 59°53' E 030°14'0 0.0
2016-Jul-24 05:33N 59°53' E 030°14'0 0.0
2016-Jul-24 04:33N 59°53' E 030°14'0 0.0
2016-Jul-24 03:33N 59°53' E 030°14'0 0.0
2016-Jul-24 02:33N 59°53' E 030°14'0 0.0
2016-Jul-24 01:33N 59°53' E 030°14'0 0.0
2016-Jul-24 00:33N 59°53' E 030°14'0 0.0
2016-Jul-23 23:33N 59°53' E 030°14'0 0.0
2016-Jul-23 22:33N 59°53' E 030°14'0 0.0
2016-Jul-23 21:33N 59°53' E 030°14'0 0.0
2016-Jul-23 20:33N 59°53' E 030°14'0 0.0
2016-Jul-23 19:33N 59°53' E 030°14'0 0.1
2016-Jul-23 18:33N 59°53' E 030°13'0 0.0
2016-Jul-23 17:33N 59°53' E 030°13'0 0.0
2016-Jul-23 16:33N 59°53' E 030°13'0 0.0
2016-Jul-23 15:33N 59°53' E 030°13'0 0.0
2016-Jul-23 14:33N 59°53' E 030°13'0 0.0
2016-Jul-23 13:33N 59°53' E 030°13'0 0.0
2016-Jul-23 12:33N 59°53' E 030°13'0 0.1
2016-Jul-23 11:33N 59°53' E 030°14'0 0.0
2016-Jul-23 10:33N 59°53' E 030°14'0 0.0
2016-Jul-23 09:33N 59°53' E 030°14'0 0.0
2016-Jul-23 08:33N 59°53' E 030°14'0 0.1
2016-Jul-23 07:33N 59°53' E 030°13'0 0.0
2016-Jul-23 06:33N 59°53' E 030°13'1 0.3
2016-Jul-23 04:33N 59°53' E 030°12'8 7.6
2016-Jul-23 03:33N 59°56' E 029°58'1010.3
2016-Jul-23 02:33N 59°60' E 029°39'16 3.1
2016-Jul-22 21:20N 60°01' E 029°06'911.3
2016-Jul-22 20:33N 59°58' E 028°50'1110.5
2016-Jul-22 19:33N 59°54' E 028°31'8 8.0
2016-Jul-22 18:33N 59°46' E 028°25'0 0.0
2016-Jul-22 17:34N 59°46' E 028°25'0 0.0
2016-Jul-22 16:33N 59°46' E 028°25'0 0.0
2016-Jul-22 15:33N 59°46' E 028°25'0 0.0
2016-Jul-22 14:33N 59°46' E 028°25'0 0.0
2016-Jul-22 13:33N 59°46' E 028°25'0 0.0
2016-Jul-22 12:33N 59°46' E 028°25'0 0.0
2016-Jul-22 11:33N 59°46' E 028°25'0 0.5
2016-Jul-22 10:33N 59°46' E 028°25'1 0.7
2016-Jul-22 09:33N 59°45' E 028°25'4 3.6
2016-Jul-22 08:33N 59°42' E 028°26'0 0.0
2016-Jul-22 07:33N 59°42' E 028°26'0 0.0
2016-Jul-22 05:33N 59°42' E 028°26'0 0.0
2016-Jul-22 04:33N 59°42' E 028°26'0 0.0
2016-Jul-22 03:33N 59°42' E 028°26'0 0.0
2016-Jul-22 02:33N 59°42' E 028°26'0 0.0
2016-Jul-22 01:33N 59°42' E 028°26'0 0.0
2016-Jul-22 00:33N 59°42' E 028°26'0 0.0
2016-Jul-21 23:33N 59°42' E 028°26'0 0.0
2016-Jul-21 22:33N 59°42' E 028°26'0 0.0
2016-Jul-21 21:33N 59°42' E 028°26'0 0.0
2016-Jul-21 20:33N 59°42' E 028°26'0 0.0
2016-Jul-21 19:33N 59°42' E 028°26'0 0.0
2016-Jul-21 18:34N 59°42' E 028°26'0 0.0
2016-Jul-21 17:33N 59°42' E 028°26'0 0.1
2016-Jul-21 16:33N 59°42' E 028°26'0 0.0
2016-Jul-21 15:33N 59°42' E 028°26'0 0.0
2016-Jul-21 14:33N 59°42' E 028°26'0 0.0
2016-Jul-21 13:33N 59°42' E 028°26'0 0.0
2016-Jul-21 12:33N 59°42' E 028°26'0 0.0
2016-Jul-21 11:33N 59°42' E 028°26'0 0.0
2016-Jul-21 10:33N 59°42' E 028°26'0 0.0
2016-Jul-21 09:33N 59°42' E 028°26'0 0.0
2016-Jul-21 08:34N 59°42' E 028°26'0 0.0
2016-Jul-21 07:34N 59°42' E 028°26'0 0.0
2016-Jul-21 06:32N 59°42' E 028°26'0 0.0
2016-Jul-21 05:33N 59°42' E 028°26'0 0.0
2016-Jul-21 04:33N 59°42' E 028°26'7 6.9
2016-Jul-21 03:33N 59°49' E 028°25'8 8.3
2016-Jul-21 02:33N 59°55' E 028°36'0 0.0
2016-Jul-21 01:33N 59°55' E 028°36'0 0.0
2016-Jul-21 00:33N 59°55' E 028°36'0 0.0
2016-Jul-20 23:33N 59°55' E 028°36'0 0.0
2016-Jul-20 22:33N 59°55' E 028°36'0 0.0
2016-Jul-20 21:33N 59°55' E 028°36'0 0.0
2016-Jul-20 20:24N 59°55' E 028°36'0 0.0
2016-Jul-20 19:27N 59°55' E 028°36'7 8.2
2016-Jul-20 18:34N 59°57' E 028°49'2511.1
2016-Jul-20 16:16N 59°60' E 029°40'5 0.7
2016-Jul-20 08:30N 59°56' E 029°46'6 6.4
2016-Jul-20 07:33N 59°56' E 029°58'8 8.1
2016-Jul-20 06:34N 59°53' E 030°14'0 0.0
2016-Jul-20 05:33N 59°53' E 030°14'0 0.0
2016-Jul-20 04:33N 59°53' E 030°14'0 0.0
2016-Jul-20 03:33N 59°53' E 030°14'0 0.0
2016-Jul-20 02:33N 59°53' E 030°14'0 0.0
2016-Jul-20 01:33N 59°53' E 030°14'0 0.0
2016-Jul-20 00:33N 59°53' E 030°14'0 0.0
2016-Jul-19 23:34N 59°53' E 030°14'0 0.0
2016-Jul-19 22:33N 59°53' E 030°14'0 0.0
2016-Jul-19 21:33N 59°53' E 030°14'0 0.1
2016-Jul-19 20:34N 59°53' E 030°13'0 0.0
2016-Jul-19 19:33N 59°53' E 030°13'0 0.0
2016-Jul-19 18:33N 59°53' E 030°13'0 0.0
2016-Jul-19 17:34N 59°53' E 030°13'0 0.0
2016-Jul-19 16:34N 59°53' E 030°13'0 0.0
2016-Jul-19 15:33N 59°53' E 030°13'0 0.0
2016-Jul-19 14:33N 59°53' E 030°13'0 0.0
2016-Jul-19 13:33N 59°53' E 030°13'0 0.0
2016-Jul-19 12:33N 59°53' E 030°13'0 0.0
2016-Jul-19 11:33N 59°53' E 030°13'0 0.1
2016-Jul-19 10:33N 59°53' E 030°14'0 0.0
2016-Jul-19 09:34N 59°53' E 030°14'0 0.0
2016-Jul-19 08:33N 59°53' E 030°14'0 0.0
2016-Jul-19 07:33N 59°53' E 030°14'1 0.3
2016-Jul-19 04:33N 59°53' E 030°12'9 9.4
2016-Jul-19 03:33N 59°56' E 029°54'1110.8
2016-Jul-19 02:32N 60°01' E 029°34'13 1.1
2016-Jul-18 14:08N 60°01' E 029°08'711.9
2016-Jul-18 13:32N 59°59' E 028°55'1211.8
2016-Jul-18 12:33N 59°53' E 028°34'7 7.5
2016-Jul-18 11:33N 59°47' E 028°25'0 0.0
2016-Jul-18 10:33N 59°47' E 028°25'0 0.0
2016-Jul-18 09:33N 59°47' E 028°25'0 0.0
2016-Jul-18 08:33N 59°47' E 028°25'0 0.0
2016-Jul-18 07:33N 59°47' E 028°25'0 0.0
2016-Jul-18 06:33N 59°47' E 028°25'0 0.0
2016-Jul-18 05:33N 59°47' E 028°25'0 0.0
2016-Jul-18 04:33N 59°47' E 028°25'0 0.0
2016-Jul-18 03:33N 59°47' E 028°25'0 0.0
2016-Jul-18 02:33N 59°47' E 028°25'0 0.2
2016-Jul-18 01:33N 59°47' E 028°25'6 6.5
2016-Jul-18 00:33N 59°53' E 028°29'5 4.5
2016-Jul-17 23:29N 59°55' E 028°37'0 0.0
2016-Jul-17 22:29N 59°55' E 028°37'0 0.0
2016-Jul-17 21:32N 59°55' E 028°37'0 0.0
2016-Jul-17 20:32N 59°55' E 028°37'0 0.0
2016-Jul-17 19:32N 59°55' E 028°37'0 0.0
2016-Jul-17 18:32N 59°55' E 028°37'0 0.0
2016-Jul-17 17:32N 59°56' E 028°37'0 0.0
2016-Jul-17 16:32N 59°55' E 028°37'0 0.0
2016-Jul-17 15:32N 59°55' E 028°37'0 0.0
2016-Jul-17 14:32N 59°55' E 028°37'0 0.0
2016-Jul-17 13:32N 59°55' E 028°37'0 0.0
2016-Jul-17 12:32N 59°55' E 028°37'0 0.0
2016-Jul-17 11:32N 59°55' E 028°37'0 0.0
2016-Jul-17 10:23N 59°55' E 028°37'0 0.0
2016-Jul-17 09:26N 59°55' E 028°37'0 0.0
2016-Jul-17 08:26N 59°55' E 028°37'0 0.0
2016-Jul-17 07:26N 59°55' E 028°37'0 0.0
2016-Jul-17 06:29N 59°55' E 028°37'0 0.0
2016-Jul-17 04:29N 59°55' E 028°37'0 0.0
2016-Jul-17 03:32N 59°55' E 028°37'0 0.0
2016-Jul-17 02:32N 59°55' E 028°37'0 0.0
2016-Jul-17 01:32N 59°55' E 028°37'0 0.0
2016-Jul-17 00:32N 59°55' E 028°37'0 0.0
2016-Jul-16 23:32N 59°55' E 028°37'0 0.0
2016-Jul-16 22:32N 59°55' E 028°37'0 0.0
2016-Jul-16 21:23N 59°55' E 028°37'0 0.0
2016-Jul-16 20:20N 59°55' E 028°37'0 0.0
2016-Jul-16 19:26N 59°55' E 028°37'0 0.0
2016-Jul-16 18:26N 59°55' E 028°37'0 0.0
2016-Jul-16 17:26N 59°55' E 028°37'0 0.0
2016-Jul-16 16:29N 59°55' E 028°37'0 0.0
2016-Jul-16 15:29N 59°55' E 028°37'0 0.0
2016-Jul-16 14:29N 59°55' E 028°37'0 0.0
2016-Jul-16 13:32N 59°55' E 028°37'0 0.0
2016-Jul-16 12:32N 59°55' E 028°37'0 0.0
2016-Jul-16 11:32N 59°55' E 028°37'0 0.0
2016-Jul-16 10:32N 59°55' E 028°37'0 0.0
2016-Jul-16 09:32N 59°55' E 028°37'0 0.0
2016-Jul-16 08:32N 59°55' E 028°37'0 0.0
2016-Jul-16 07:32N 59°55' E 028°37'0 0.0
2016-Jul-16 06:23N 59°55' E 028°37'0 0.0
2016-Jul-16 04:26N 59°56' E 028°37'0 0.1
2016-Jul-16 03:33N 59°55' E 028°37'9 9.1
2016-Jul-16 02:33N 60°04' E 028°41'1111.0
2016-Jul-16 01:33N 60°15' E 028°48'6 1.0
2016-Jul-15 19:29N 60°20' E 028°42'0 0.0
2016-Jul-15 04:11N 60°20' E 028°42'2 2.2
2016-Jul-15 03:09N 60°18' E 028°45'0 0.0
2016-Jul-15 01:24N 60°18' E 028°45'0 0.0
2016-Jul-14 15:33N 60°18' E 028°45'0 0.0
2016-Jul-14 14:18N 60°18' E 028°45'3 1.6
2016-Jul-14 12:15N 60°16' E 028°49'  
Track history (hours):
 
Tides and Currents Weather Stations Pressure Air Temp Water Temp Dewpoint Dewpoint Depression Visibility Wind Speed Wind Dir Waves Ship Positions

Gazpromneft East

Last reported at 2016-Jul-24 10:32 UTC. Time now 2016-Jul-24 10:43 UTC.
Position N 60°01' E 029°34'.

Length 79 m; draft 5.3 m.

Type: Tanker. MMSI: 273335320.

Date/timePositionNaut miles runAvg speedWind from/ knotsBaromVisibWave heightAir tempDewpointWater temp
2016-Jul-24 10:32N 60°01' E 029°34'1010.2
2016-Jul-24 09:33N 59°57' E 029°53'9 9.5
2016-Jul-24 08:33N 59°53' E 030°10'2 1.7
2016-Jul-24 07:33N 59°53' E 030°14'0 0.0
2016-Jul-24 06:33N 59°53' E 030°14'0 0.0
2016-Jul-24 05:33N 59°53' E 030°14'0 0.0
2016-Jul-24 04:33N 59°53' E 030°14'0 0.0
2016-Jul-24 03:33N 59°53' E 030°14'0 0.0
2016-Jul-24 02:33N 59°53' E 030°14'0 0.0
2016-Jul-24 01:33N 59°53' E 030°14'0 0.0
2016-Jul-24 00:33N 59°53' E 030°14'0 0.0
2016-Jul-23 23:33N 59°53' E 030°14'0 0.0
2016-Jul-23 22:33N 59°53' E 030°14'0 0.0
2016-Jul-23 21:33N 59°53' E 030°14'0 0.0
2016-Jul-23 20:33N 59°53' E 030°14'0 0.0
2016-Jul-23 19:33N 59°53' E 030°14'0 0.1
2016-Jul-23 18:33N 59°53' E 030°13'0 0.0
2016-Jul-23 17:33N 59°53' E 030°13'0 0.0
2016-Jul-23 16:33N 59°53' E 030°13'0 0.0
2016-Jul-23 15:33N 59°53' E 030°13'0 0.0
2016-Jul-23 14:33N 59°53' E 030°13'0 0.0
2016-Jul-23 13:33N 59°53' E 030°13'0 0.0
2016-Jul-23 12:33N 59°53' E 030°13'0 0.1
2016-Jul-23 11:33N 59°53' E 030°14'0 0.0
2016-Jul-23 10:33N 59°53' E 030°14'0 0.0
2016-Jul-23 09:33N 59°53' E 030°14'0 0.0
2016-Jul-23 08:33N 59°53' E 030°14'0 0.1
2016-Jul-23 07:33N 59°53' E 030°13'0 0.0
2016-Jul-23 06:33N 59°53' E 030°13'1 0.3
2016-Jul-23 04:33N 59°53' E 030°12'8 7.6
2016-Jul-23 03:33N 59°56' E 029°58'1010.3
2016-Jul-23 02:33N 59°60' E 029°39'16 3.1
2016-Jul-22 21:20N 60°01' E 029°06'911.3
2016-Jul-22 20:33N 59°58' E 028°50'1110.5
2016-Jul-22 19:33N 59°54' E 028°31'8 8.0
2016-Jul-22 18:33N 59°46' E 028°25'0 0.0
2016-Jul-22 17:34N 59°46' E 028°25'0 0.0
2016-Jul-22 16:33N 59°46' E 028°25'0 0.0
2016-Jul-22 15:33N 59°46' E 028°25'0 0.0
2016-Jul-22 14:33N 59°46' E 028°25'0 0.0
2016-Jul-22 13:33N 59°46' E 028°25'0 0.0
2016-Jul-22 12:33N 59°46' E 028°25'0 0.0
2016-Jul-22 11:33N 59°46' E 028°25'0 0.5
2016-Jul-22 10:33N 59°46' E 028°25'1 0.7
2016-Jul-22 09:33N 59°45' E 028°25'4 3.6
2016-Jul-22 08:33N 59°42' E 028°26'0 0.0
2016-Jul-22 07:33N 59°42' E 028°26'0 0.0
2016-Jul-22 05:33N 59°42' E 028°26'0 0.0
2016-Jul-22 04:33N 59°42' E 028°26'0 0.0
2016-Jul-22 03:33N 59°42' E 028°26'0 0.0
2016-Jul-22 02:33N 59°42' E 028°26'0 0.0
2016-Jul-22 01:33N 59°42' E 028°26'0 0.0
2016-Jul-22 00:33N 59°42' E 028°26'0 0.0
2016-Jul-21 23:33N 59°42' E 028°26'0 0.0
2016-Jul-21 22:33N 59°42' E 028°26'0 0.0
2016-Jul-21 21:33N 59°42' E 028°26'0 0.0
2016-Jul-21 20:33N 59°42' E 028°26'0 0.0
2016-Jul-21 19:33N 59°42' E 028°26'0 0.0
2016-Jul-21 18:34N 59°42' E 028°26'0 0.0
2016-Jul-21 17:33N 59°42' E 028°26'0 0.1
2016-Jul-21 16:33N 59°42' E 028°26'0 0.0
2016-Jul-21 15:33N 59°42' E 028°26'0 0.0
2016-Jul-21 14:33N 59°42' E 028°26'0 0.0
2016-Jul-21 13:33N 59°42' E 028°26'0 0.0
2016-Jul-21 12:33N 59°42' E 028°26'0 0.0
2016-Jul-21 11:33N 59°42' E 028°26'0 0.0
2016-Jul-21 10:33N 59°42' E 028°26'0 0.0
2016-Jul-21 09:33N 59°42' E 028°26'0 0.0
2016-Jul-21 08:34N 59°42' E 028°26'0 0.0
2016-Jul-21 07:34N 59°42' E 028°26'0 0.0
2016-Jul-21 06:32N 59°42' E 028°26'0 0.0
2016-Jul-21 05:33N 59°42' E 028°26'0 0.0
2016-Jul-21 04:33N 59°42' E 028°26'7 6.9
2016-Jul-21 03:33N 59°49' E 028°25'8 8.3
2016-Jul-21 02:33N 59°55' E 028°36'0 0.0
2016-Jul-21 01:33N 59°55' E 028°36'0 0.0
2016-Jul-21 00:33N 59°55' E 028°36'0 0.0
2016-Jul-20 23:33N 59°55' E 028°36'0 0.0
2016-Jul-20 22:33N 59°55' E 028°36'0 0.0
2016-Jul-20 21:33N 59°55' E 028°36'0 0.0
2016-Jul-20 20:24N 59°55' E 028°36'0 0.0
2016-Jul-20 19:27N 59°55' E 028°36'7 8.2
2016-Jul-20 18:34N 59°57' E 028°49'2511.1
2016-Jul-20 16:16N 59°60' E 029°40'5 0.7
2016-Jul-20 08:30N 59°56' E 029°46'6 6.4
2016-Jul-20 07:33N 59°56' E 029°58'8 8.1
2016-Jul-20 06:34N 59°53' E 030°14'0 0.0
2016-Jul-20 05:33N 59°53' E 030°14'0 0.0
2016-Jul-20 04:33N 59°53' E 030°14'0 0.0
2016-Jul-20 03:33N 59°53' E 030°14'0 0.0
2016-Jul-20 02:33N 59°53' E 030°14'0 0.0
2016-Jul-20 01:33N 59°53' E 030°14'0 0.0
2016-Jul-20 00:33N 59°53' E 030°14'0 0.0
2016-Jul-19 23:34N 59°53' E 030°14'0 0.0
2016-Jul-19 22:33N 59°53' E 030°14'0 0.0
2016-Jul-19 21:33N 59°53' E 030°14'0 0.1
2016-Jul-19 20:34N 59°53' E 030°13'0 0.0
2016-Jul-19 19:33N 59°53' E 030°13'0 0.0
2016-Jul-19 18:33N 59°53' E 030°13'0 0.0
2016-Jul-19 17:34N 59°53' E 030°13'0 0.0
2016-Jul-19 16:34N 59°53' E 030°13'0 0.0
2016-Jul-19 15:33N 59°53' E 030°13'0 0.0
2016-Jul-19 14:33N 59°53' E 030°13'0 0.0
2016-Jul-19 13:33N 59°53' E 030°13'0 0.0
2016-Jul-19 12:33N 59°53' E 030°13'0 0.0
2016-Jul-19 11:33N 59°53' E 030°13'0 0.1
2016-Jul-19 10:33N 59°53' E 030°14'0 0.0
2016-Jul-19 09:34N 59°53' E 030°14'0 0.0
2016-Jul-19 08:33N 59°53' E 030°14'0 0.0
2016-Jul-19 07:33N 59°53' E 030°14'1 0.3
2016-Jul-19 04:33N 59°53' E 030°12'9 9.4
2016-Jul-19 03:33N 59°56' E 029°54'1110.8
2016-Jul-19 02:32N 60°01' E 029°34'13 1.1
2016-Jul-18 14:08N 60°01' E 029°08'711.9
2016-Jul-18 13:32N 59°59' E 028°55'1211.8
2016-Jul-18 12:33N 59°53' E 028°34'7 7.5
2016-Jul-18 11:33N 59°47' E 028°25'0 0.0
2016-Jul-18 10:33N 59°47' E 028°25'0 0.0
2016-Jul-18 09:33N 59°47' E 028°25'0 0.0
2016-Jul-18 08:33N 59°47' E 028°25'0 0.0
2016-Jul-18 07:33N 59°47' E 028°25'0 0.0
2016-Jul-18 06:33N 59°47' E 028°25'0 0.0
2016-Jul-18 05:33N 59°47' E 028°25'0 0.0
2016-Jul-18 04:33N 59°47' E 028°25'0 0.0
2016-Jul-18 03:33N 59°47' E 028°25'0 0.0
2016-Jul-18 02:33N 59°47' E 028°25'0 0.2
2016-Jul-18 01:33N 59°47' E 028°25'6 6.5
2016-Jul-18 00:33N 59°53' E 028°29'5 4.5
2016-Jul-17 23:29N 59°55' E 028°37'0 0.0
2016-Jul-17 22:29N 59°55' E 028°37'0 0.0
2016-Jul-17 21:32N 59°55' E 028°37'0 0.0
2016-Jul-17 20:32N 59°55' E 028°37'0 0.0
2016-Jul-17 19:32N 59°55' E 028°37'0 0.0
2016-Jul-17 18:32N 59°55' E 028°37'0 0.0
2016-Jul-17 17:32N 59°56' E 028°37'0 0.0
2016-Jul-17 16:32N 59°55' E 028°37'0 0.0
2016-Jul-17 15:32N 59°55' E 028°37'0 0.0
2016-Jul-17 14:32N 59°55' E 028°37'0 0.0
2016-Jul-17 13:32N 59°55' E 028°37'0 0.0
2016-Jul-17 12:32N 59°55' E 028°37'0 0.0
2016-Jul-17 11:32N 59°55' E 028°37'0 0.0
2016-Jul-17 10:23N 59°55' E 028°37'0 0.0
2016-Jul-17 09:26N 59°55' E 028°37'0 0.0
2016-Jul-17 08:26N 59°55' E 028°37'0 0.0
2016-Jul-17 07:26N 59°55' E 028°37'0 0.0
2016-Jul-17 06:29N 59°55' E 028°37'0 0.0
2016-Jul-17 04:29N 59°55' E 028°37'0 0.0
2016-Jul-17 03:32N 59°55' E 028°37'0 0.0
2016-Jul-17 02:32N 59°55' E 028°37'0 0.0
2016-Jul-17 01:32N 59°55' E 028°37'0 0.0
2016-Jul-17 00:32N 59°55' E 028°37'0 0.0
2016-Jul-16 23:32N 59°55' E 028°37'0 0.0
2016-Jul-16 22:32N 59°55' E 028°37'0 0.0
2016-Jul-16 21:23N 59°55' E 028°37'0 0.0
2016-Jul-16 20:20N 59°55' E 028°37'0 0.0
2016-Jul-16 19:26N 59°55' E 028°37'0 0.0
2016-Jul-16 18:26N 59°55' E 028°37'0 0.0
2016-Jul-16 17:26N 59°55' E 028°37'0 0.0
2016-Jul-16 16:29N 59°55' E 028°37'0 0.0
2016-Jul-16 15:29N 59°55' E 028°37'0 0.0
2016-Jul-16 14:29N 59°55' E 028°37'0 0.0
2016-Jul-16 13:32N 59°55' E 028°37'0 0.0
2016-Jul-16 12:32N 59°55' E 028°37'0 0.0
2016-Jul-16 11:32N 59°55' E 028°37'0 0.0
2016-Jul-16 10:32N 59°55' E 028°37'0 0.0
2016-Jul-16 09:32N 59°55' E 028°37'0 0.0
2016-Jul-16 08:32N 59°55' E 028°37'0 0.0
2016-Jul-16 07:32N 59°55' E 028°37'0 0.0
2016-Jul-16 06:23N 59°55' E 028°37'0 0.0
2016-Jul-16 04:26N 59°56' E 028°37'0 0.1
2016-Jul-16 03:33N 59°55' E 028°37'9 9.1
2016-Jul-16 02:33N 60°04' E 028°41'1111.0
2016-Jul-16 01:33N 60°15' E 028°48'6 1.0
2016-Jul-15 19:29N 60°20' E 028°42'0 0.0
2016-Jul-15 04:11N 60°20' E 028°42'2 2.2
2016-Jul-15 03:09N 60°18' E 028°45'0 0.0
2016-Jul-15 01:24N 60°18' E 028°45'0 0.0
2016-Jul-14 15:33N 60°18' E 028°45'0 0.0
2016-Jul-14 14:18N 60°18' E 028°45'3 1.6
2016-Jul-14 12:15N 60°16' E 028°49'  

Dump ship's entire track history